Time;durP1;ratioP1;P1;durP2;ratioP2;P2;SDS_P1;SDS_P2;PMS_P1;PMS_P2;Temp;Humidity;BMP_temperature;BMP_pressure;BME280_temperature;BME280_humidity;BME280_pressure;Samples;Min_cycle;Max_cycle;Signal;HPM_P1;HPM_P2
2023/05/24 00:01:24;;;;;;;5.47;2.80;;;15.40;91.20;;;;;;4993898;28;20181;-82
2023/05/24 00:03:51;;;;;;;4.50;2.83;;;15.30;91.30;;;;;;5036650;28;20162;-82
2023/05/24 00:06:17;;;;;;;5.57;3.20;;;15.20;92.20;;;;;;5031641;28;20174;-82
2023/05/24 00:08:43;;;;;;;4.45;3.00;;;15.10;93.50;;;;;;5015711;28;20178;-81
2023/05/24 00:11:10;;;;;;;4.15;2.88;;;15.00;94.80;;;;;;5036576;28;20173;-83
2023/05/24 00:13:36;;;;;;;3.63;2.67;;;14.90;96.20;;;;;;5029165;28;20202;-82
2023/05/24 00:16:02;;;;;;;10.73;3.75;;;14.80;96.20;;;;;;4997753;28;20256;-83
2023/05/24 00:18:30;;;;;;;4.72;2.88;;;14.80;97.60;;;;;;4998182;28;20221;-82
2023/05/24 00:20:57;;;;;;;4.80;2.92;;;14.70;97.50;;;;;;4996365;28;20178;-82
2023/05/24 00:23:25;;;;;;;9.65;3.30;;;14.70;97.60;;;;;;5028794;28;20178;-83
2023/05/24 00:25:52;;;;;;;7.63;3.22;;;14.70;97.60;;;;;;5012497;28;20316;-83
2023/05/24 00:28:17;;;;;;;6.32;3.03;;;14.70;96.50;;;;;;4997399;28;20173;-82
2023/05/24 00:30:43;;;;;;;4.95;3.10;;;14.60;97.00;;;;;;5028960;28;20182;-82
2023/05/24 00:33:09;;;;;;;3.83;2.90;;;14.60;97.20;;;;;;5028723;28;20206;-82
2023/05/24 00:35:34;;;;;;;4.55;3.10;;;14.60;96.10;;;;;;5012568;28;20169;-82
2023/05/24 00:38:00;;;;;;;4.65;3.45;;;14.60;96.80;;;;;;4997238;28;20623;-82
2023/05/24 00:40:26;;;;;;;6.13;3.22;;;14.60;96.70;;;;;;5028625;28;20178;-82
2023/05/24 00:42:51;;;;;;;5.32;3.28;;;14.60;96.50;;;;;;4996692;28;20189;-82
2023/05/24 00:45:17;;;;;;;4.70;3.33;;;14.60;96.80;;;;;;5028197;28;20234;-82
2023/05/24 00:47:43;;;;;;;3.72;2.80;;;14.60;97.30;;;;;;4996811;28;20638;-82
2023/05/24 00:50:13;;;;;;;4.90;3.08;;;14.60;96.80;;;;;;5028710;28;20185;-82
2023/05/24 00:52:40;;;;;;;6.10;3.38;;;14.50;97.20;;;;;;4996893;28;20194;-82
2023/05/24 00:55:07;;;;;;;4.82;3.38;;;14.50;97.10;;;;;;4996804;28;20178;-82
2023/05/24 00:57:34;;;;;;;4.30;3.42;;;14.50;96.70;;;;;;4996905;28;20170;-83
2023/05/24 01:00:01;;;;;;;3.72;2.92;;;14.50;96.70;;;;;;4996787;28;20178;-83
2023/05/24 01:02:27;;;;;;;5.53;3.63;;;14.50;96.40;;;;;;5011387;28;20260;-83
2023/05/24 01:04:55;;;;;;;5.05;3.22;;;14.50;96.50;;;;;;4996818;28;20189;-82
2023/05/24 01:07:36;;;;;;;4.07;2.60;;;14.50;96.70;;;;;;5027763;28;20174;-82
2023/05/24 01:10:25;;;;;;;6.82;3.58;;;14.40;96.10;;;;;;4996780;28;20177;-82
2023/05/24 01:13:27;;;;;;;7.65;3.00;;;14.40;96.70;;;;;;4996537;28;20202;-82
2023/05/24 01:16:13;;;;;;;7.70;3.13;;;14.50;96.40;;;;;;5028003;28;20216;-83
2023/05/24 01:18:48;;;;;;;6.00;3.20;;;14.40;96.50;;;;;;5028190;28;20170;-83
2023/05/24 01:21:33;;;;;;;4.10;2.90;;;14.40;96.60;;;;;;4996388;28;20162;-83
2023/05/24 01:24:24;;;;;;;5.00;3.20;;;14.40;97.50;;;;;;4996350;28;20182;-83
2023/05/24 01:27:06;;;;;;;6.68;3.33;;;14.40;96.80;;;;;;4995148;28;20177;-83
2023/05/24 01:29:34;;;;;;;3.80;2.92;;;14.40;96.70;;;;;;4996599;28;20161;-82
2023/05/24 01:32:00;;;;;;;3.28;2.88;;;14.30;96.70;;;;;;4995918;28;20174;-82
2023/05/24 01:34:26;;;;;;;6.47;3.35;;;14.30;96.80;;;;;;4996153;28;20639;-82
2023/05/24 01:36:51;;;;;;;7.38;3.65;;;14.30;97.70;;;;;;5011328;28;20174;-83
2023/05/24 01:39:18;;;;;;;5.72;3.55;;;14.30;98.60;;;;;;4995814;28;20177;-83
2023/05/24 01:41:44;;;;;;;8.68;3.20;;;14.30;97.20;;;;;;5027386;28;20178;-82
2023/05/24 01:44:30;;;;;;;4.72;3.50;;;14.20;98.10;;;;;;4996116;28;20231;-82
2023/05/24 01:47:07;;;;;;;13.43;3.65;;;14.20;99.10;;;;;;4996170;28;20244;-82
2023/05/24 01:49:41;;;;;;;4.28;3.17;;;14.20;99.90;;;;;;5027285;28;20531;-83
2023/05/24 01:52:15;;;;;;;4.78;3.15;;;14.20;99.90;;;;;;4995765;28;20158;-82
2023/05/24 01:54:46;;;;;;;6.68;3.00;;;14.10;99.90;;;;;;5027259;28;20510;-82
2023/05/24 01:57:13;;;;;;;7.57;3.28;;;14.10;99.90;;;;;;4995571;28;20257;-82
2023/05/24 01:59:42;;;;;;;6.78;3.20;;;14.10;99.90;;;;;;5010504;28;20178;-82
2023/05/24 02:02:09;;;;;;;6.45;3.55;;;14.00;99.90;;;;;;4995705;28;20623;-82
2023/05/24 02:04:35;;;;;;;9.40;3.88;;;14.00;99.90;;;;;;4995561;28;20175;-82
2023/05/24 02:07:00;;;;;;;4.43;2.80;;;14.00;99.90;;;;;;5010618;28;20643;-82
2023/05/24 02:09:26;;;;;;;6.50;3.28;;;14.00;99.90;;;;;;4995459;28;20178;-83
2023/05/24 02:11:52;;;;;;;5.57;3.20;;;14.00;99.90;;;;;;5010600;28;20615;-83
2023/05/24 02:14:18;;;;;;;5.80;3.60;;;13.90;99.90;;;;;;5026768;28;20220;-83
2023/05/24 02:16:45;;;;;;;9.20;3.53;;;13.90;99.90;;;;;;5010564;28;20174;-82
2023/05/24 02:19:12;;;;;;;5.32;3.17;;;13.90;99.90;;;;;;5010884;28;20201;-82
2023/05/24 02:21:37;;;;;;;8.25;3.65;;;13.80;99.90;;;;;;4995348;28;20639;-83
2023/05/24 02:24:04;;;;;;;4.53;3.47;;;13.80;99.90;;;;;;4995528;28;20182;-82
2023/05/24 02:26:30;;;;;;;5.45;3.30;;;13.70;99.90;;;;;;4995138;28;20174;-83
2023/05/24 02:28:55;;;;;;;8.02;3.17;;;13.60;99.90;;;;;;4995344;28;20174;-82
2023/05/24 02:31:21;;;;;;;6.07;3.45;;;13.60;99.90;;;;;;4995048;28;20181;-83
2023/05/24 02:33:47;;;;;;;5.05;3.53;;;13.50;99.90;;;;;;5026321;28;20206;-83
2023/05/24 02:36:12;;;;;;;7.07;3.78;;;13.50;99.90;;;;;;4995071;28;20578;-82
2023/05/24 02:38:39;;;;;;;5.65;3.20;;;13.50;99.90;;;;;;4994924;28;20185;-82
2023/05/24 02:41:04;;;;;;;5.07;3.42;;;13.40;99.90;;;;;;5026613;28;20325;-83
2023/05/24 02:43:30;;;;;;;7.90;3.33;;;13.40;99.90;;;;;;4994543;28;20609;-83
2023/05/24 02:45:55;;;;;;;6.30;4.05;;;13.40;99.90;;;;;;5009790;28;20679;-82
2023/05/24 02:48:21;;;;;;;6.35;2.95;;;13.40;99.90;;;;;;5026219;28;20615;-83
2023/05/24 02:50:48;;;;;;;5.70;3.22;;;13.40;99.90;;;;;;5009937;28;20197;-82
2023/05/24 02:53:13;;;;;;;5.30;3.13;;;13.40;99.90;;;;;;4994783;28;20209;-82
2023/05/24 02:55:39;;;;;;;10.63;3.53;;;13.40;99.90;;;;;;5009952;28;20192;-82
2023/05/24 02:58:05;;;;;;;5.20;3.63;;;13.40;99.90;;;;;;4994756;28;20185;-83
2023/05/24 03:00:30;;;;;;;3.55;2.97;;;13.40;99.90;;;;;;4994541;28;20186;-82
2023/05/24 03:02:59;;;;;;;9.75;3.42;;;13.40;99.90;;;;;;4994872;28;20177;-82
2023/05/24 03:05:25;;;;;;;4.88;3.03;;;13.40;99.90;;;;;;5009364;28;20178;-83
2023/05/24 03:07:50;;;;;;;7.05;3.38;;;13.50;99.90;;;;;;4994629;28;20181;-83
2023/05/24 03:10:16;;;;;;;4.50;3.42;;;13.50;99.90;;;;;;5009368;28;20185;-83
2023/05/24 03:12:42;;;;;;;6.82;3.13;;;13.50;99.90;;;;;;5009540;28;20217;-83
2023/05/24 03:15:08;;;;;;;6.40;3.20;;;13.50;99.90;;;;;;5026162;28;20618;-83
2023/05/24 03:17:34;;;;;;;6.90;3.60;;;13.50;99.90;;;;;;5025747;28;20185;-83
2023/05/24 03:20:00;;;;;;;5.75;3.40;;;13.50;99.90;;;;;;5009488;28;20181;-83
2023/05/24 03:22:27;;;;;;;8.65;3.17;;;13.50;99.90;;;;;;5008958;28;20230;-84
2023/05/24 03:24:55;;;;;;;5.57;3.22;;;13.60;99.90;;;;;;5025471;28;20533;-83
2023/05/24 03:27:20;;;;;;;6.28;3.45;;;13.60;99.90;;;;;;5024185;28;20545;-83
2023/05/24 03:29:46;;;;;;;6.18;3.28;;;13.60;99.90;;;;;;5025032;28;20186;-83
2023/05/24 03:32:11;;;;;;;4.18;3.45;;;13.60;99.90;;;;;;5024551;28;20185;-83
2023/05/24 03:34:37;;;;;;;7.43;3.67;;;13.60;99.90;;;;;;5024775;28;20174;-81
2023/05/24 03:37:03;;;;;;;9.73;3.25;;;13.70;99.90;;;;;;4993385;28;20257;-82
2023/05/24 03:39:29;;;;;;;5.70;3.25;;;13.60;99.90;;;;;;4996072;28;20185;-83
2023/05/24 03:41:54;;;;;;;5.60;3.17;;;13.70;99.90;;;;;;5014950;28;20272;-81
2023/05/24 03:44:20;;;;;;;4.63;3.13;;;13.70;99.90;;;;;;5015058;28;20235;-82
2023/05/24 03:46:46;;;;;;;12.20;3.30;;;13.70;99.90;;;;;;5030969;28;20237;-81
2023/05/24 03:49:11;;;;;;;5.80;3.70;;;13.60;99.90;;;;;;5014874;28;20189;-84
2023/05/24 03:51:37;;;;;;;4.78;3.50;;;13.60;99.90;;;;;;4999516;28;20196;-81
2023/05/24 03:54:02;;;;;;;5.47;3.10;;;13.60;99.90;;;;;;4999590;28;20221;-81
2023/05/24 03:56:28;;;;;;;6.15;3.55;;;13.60;99.90;;;;;;5031257;28;20580;-81
2023/05/24 03:58:56;;;;;;;5.65;3.20;;;13.60;99.90;;;;;;5000039;28;20583;-81
2023/05/24 04:01:23;;;;;;;5.85;3.22;;;13.60;99.90;;;;;;5014342;28;20184;-81
2023/05/24 04:03:50;;;;;;;5.07;3.53;;;13.70;99.90;;;;;;5031000;28;20181;-81
2023/05/24 04:06:15;;;;;;;6.55;3.60;;;13.70;99.90;;;;;;5031136;28;20182;-81
2023/05/24 04:08:41;;;;;;;6.80;3.47;;;13.80;99.90;;;;;;4999709;28;20178;-80
2023/05/24 04:11:06;;;;;;;5.55;3.20;;;13.90;99.90;;;;;;4999640;28;20190;-81
2023/05/24 04:13:32;;;;;;;4.68;3.25;;;14.00;99.90;;;;;;5030852;28;20675;-81
2023/05/24 04:15:58;;;;;;;8.18;3.58;;;14.10;99.90;;;;;;4999751;28;20178;-81
2023/05/24 04:18:23;;;;;;;6.75;3.20;;;14.10;99.90;;;;;;5014618;28;20200;-81
2023/05/24 04:20:49;;;;;;;6.25;3.38;;;14.20;99.90;;;;;;5030818;28;20237;-82
2023/05/24 04:23:15;;;;;;;7.35;4.18;;;14.30;99.90;;;;;;4998973;28;20236;-81
2023/05/24 04:25:41;;;;;;;5.15;3.08;;;14.40;99.90;;;;;;5030348;28;20754;-81
2023/05/24 04:28:07;;;;;;;4.63;2.72;;;14.40;99.90;;;;;;5037941;28;20178;-83
2023/05/24 04:30:33;;;;;;;9.50;4.18;;;14.50;99.90;;;;;;5044061;28;20326;-83
2023/05/24 04:32:58;;;;;;;6.80;3.90;;;14.70;99.90;;;;;;5038168;28;20201;-83
2023/05/24 04:35:24;;;;;;;5.22;3.00;;;14.80;99.90;;;;;;5000108;28;20231;-82
2023/05/24 04:37:51;;;;;;;7.28;3.30;;;14.90;99.90;;;;;;5014235;28;20550;-83
2023/05/24 04:40:19;;;;;;;3.58;2.97;;;15.20;99.90;;;;;;4998518;28;20174;-82
2023/05/24 04:42:45;;;;;;;7.18;3.75;;;15.30;99.90;;;;;;5029157;28;20188;-82
2023/05/24 04:45:11;;;;;;;8.18;3.53;;;15.40;99.90;;;;;;4995948;28;20185;-82
2023/05/24 04:47:36;;;;;;;5.70;2.85;;;15.50;99.90;;;;;;5028933;28;20173;-82
2023/05/24 04:50:02;;;;;;;4.90;3.10;;;15.70;99.90;;;;;;4997192;28;20627;-81
2023/05/24 04:52:29;;;;;;;6.10;3.55;;;15.80;99.90;;;;;;5025022;28;20221;-81
2023/05/24 04:54:56;;;;;;;5.65;2.75;;;15.90;99.90;;;;;;5026010;28;20556;-84
2023/05/24 04:57:22;;;;;;;3.80;3.10;;;15.90;99.90;;;;;;5026980;28;20177;-82
2023/05/24 04:59:48;;;;;;;5.70;3.22;;;15.90;99.90;;;;;;4994599;28;20186;-82
2023/05/24 05:02:13;;;;;;;9.77;3.53;;;15.90;99.90;;;;;;5011122;28;20635;-82
2023/05/24 05:04:39;;;;;;;6.00;3.28;;;15.80;99.90;;;;;;5010970;28;20667;-82
2023/05/24 05:07:05;;;;;;;7.90;4.10;;;15.80;99.90;;;;;;5027825;28;20635;-82
2023/05/24 05:09:30;;;;;;;6.15;3.63;;;15.80;99.90;;;;;;4995821;28;20488;-82
2023/05/24 05:11:57;;;;;;;4.38;3.03;;;15.80;99.90;;;;;;4995805;28;20265;-82
2023/05/24 05:14:22;;;;;;;8.07;2.92;;;15.80;99.90;;;;;;4996047;28;20213;-82
2023/05/24 05:16:48;;;;;;;4.28;2.70;;;15.90;99.90;;;;;;5027536;28;20189;-81
2023/05/24 05:19:14;;;;;;;6.25;3.58;;;15.80;99.90;;;;;;5027402;28;20212;-81
2023/05/24 05:21:40;;;;;;;5.65;3.28;;;15.90;99.90;;;;;;4995645;28;20178;-82
2023/05/24 05:24:06;;;;;;;3.47;2.55;;;15.90;99.90;;;;;;4995783;28;20185;-82
2023/05/24 05:26:33;;;;;;;6.03;2.85;;;15.90;99.90;;;;;;5027362;28;20178;-82
2023/05/24 05:28:59;;;;;;;5.82;2.95;;;15.90;99.90;;;;;;4995716;28;20189;-82
2023/05/24 05:31:24;;;;;;;7.00;2.78;;;15.90;99.90;;;;;;4996050;28;20182;-82
2023/05/24 05:33:50;;;;;;;4.07;2.70;;;16.00;99.90;;;;;;4996813;28;20663;-82
2023/05/24 05:36:16;;;;;;;5.65;3.00;;;16.00;99.90;;;;;;4995974;28;20646;-82
2023/05/24 05:38:42;;;;;;;5.55;2.80;;;16.10;99.90;;;;;;4995630;28;20236;-82
2023/05/24 05:41:08;;;;;;;6.35;2.97;;;16.20;99.90;;;;;;4997323;28;20173;-82
2023/05/24 05:43:34;;;;;;;5.57;3.45;;;16.20;99.90;;;;;;5001697;28;20272;-81
2023/05/24 05:46:00;;;;;;;9.07;3.38;;;16.30;99.90;;;;;;5032141;28;20325;-80
2023/05/24 05:48:26;;;;;;;7.25;3.63;;;16.40;99.90;;;;;;5042091;28;20196;-81
2023/05/24 05:50:52;;;;;;;5.68;3.38;;;16.70;99.90;;;;;;5000204;28;20201;-82
2023/05/24 05:53:17;;;;;;;5.38;2.95;;;16.90;99.90;;;;;;4996350;28;20687;-82
2023/05/24 05:55:43;;;;;;;5.65;2.90;;;17.10;99.90;;;;;;5003353;28;20607;-81
2023/05/24 05:58:09;;;;;;;4.43;2.90;;;17.30;99.80;;;;;;5003719;28;20233;-81
2023/05/24 06:00:35;;;;;;;4.20;3.15;;;17.40;99.70;;;;;;5012517;28;20182;-82
2023/05/24 06:03:00;;;;;;;4.93;3.60;;;17.60;99.30;;;;;;5034040;28;20252;-82
2023/05/24 06:05:26;;;;;;;4.45;2.88;;;17.70;98.90;;;;;;4996275;28;20209;-82
2023/05/24 06:07:52;;;;;;;4.68;3.40;;;18.00;98.90;;;;;;5027409;28;20213;-82
2023/05/24 06:10:17;;;;;;;5.78;3.20;;;18.20;98.40;;;;;;4994537;28;20182;-82
2023/05/24 06:12:43;;;;;;;8.07;2.97;;;18.20;97.50;;;;;;5010560;28;20698;-82
2023/05/24 06:15:09;;;;;;;5.03;3.72;;;18.30;96.10;;;;;;4994155;28;20750;-82
2023/05/24 06:17:36;;;;;;;4.85;3.60;;;18.40;97.30;;;;;;5027265;28;20183;-81
2023/05/24 06:20:07;;;;;;;5.05;2.85;;;18.50;96.60;;;;;;5027471;28;20273;-81
2023/05/24 06:22:35;;;;;;;5.15;2.78;;;18.50;96.30;;;;;;5027298;28;20193;-82
2023/05/24 06:25:01;;;;;;;6.10;3.15;;;18.60;96.20;;;;;;4996500;28;20186;-82
2023/05/24 06:27:27;;;;;;;6.63;3.58;;;18.70;95.90;;;;;;4996170;28;20174;-82
2023/05/24 06:29:52;;;;;;;4.53;2.90;;;18.80;96.10;;;;;;4996043;28;20510;-82
2023/05/24 06:32:18;;;;;;;6.50;3.47;;;18.90;96.00;;;;;;5026897;28;20644;-82
2023/05/24 06:34:44;;;;;;;6.85;3.22;;;19.00;95.90;;;;;;4995149;28;20185;-82
2023/05/24 06:37:14;;;;;;;4.85;3.30;;;19.10;95.00;;;;;;5010027;28;20182;-82
2023/05/24 06:39:40;;;;;;;6.80;3.50;;;19.20;94.40;;;;;;4995113;28;20233;-82
2023/05/24 06:42:06;;;;;;;8.68;3.03;;;19.30;92.70;;;;;;5010050;28;20208;-82
2023/05/24 06:44:33;;;;;;;3.97;2.80;;;19.40;93.30;;;;;;4995220;28;20537;-82
2023/05/24 06:47:02;;;;;;;3.97;2.70;;;19.40;93.40;;;;;;4994867;28;20229;-81
2023/05/24 06:49:27;;;;;;;4.88;3.13;;;19.30;93.00;;;;;;5026733;28;20189;-82
2023/05/24 06:51:53;;;;;;;5.07;3.10;;;19.20;93.20;;;;;;4994926;28;20186;-83
2023/05/24 06:54:20;;;;;;;5.88;3.30;;;19.20;93.60;;;;;;4994857;28;20572;-82
2023/05/24 06:56:46;;;;;;;7.45;3.42;;;19.30;95.00;;;;;;4995128;28;20205;-82
2023/05/24 06:59:12;;;;;;;7.07;2.90;;;19.40;96.10;;;;;;5026600;28;20348;-82
2023/05/24 07:01:38;;;;;;;4.47;3.00;;;19.50;95.10;;;;;;4995664;28;20184;-82
2023/05/24 07:04:08;;;;;;;4.63;2.65;;;19.70;95.90;;;;;;4995165;28;20214;-81
2023/05/24 07:06:34;;;;;;;5.28;3.30;;;19.80;95.40;;;;;;5026150;28;20208;-82
2023/05/24 07:09:03;;;;;;;5.25;3.53;;;20.00;95.20;;;;;;4994482;28;20643;-82
2023/05/24 07:11:29;;;;;;;5.60;3.05;;;20.30;95.30;;;;;;5009206;28;20181;-82
2023/05/24 07:13:56;;;;;;;9.82;4.80;;;20.30;94.60;;;;;;4993951;28;20206;-82
2023/05/24 07:16:21;;;;;;;9.40;3.78;;;20.50;94.80;;;;;;5026065;28;20185;-82
2023/05/24 07:18:47;;;;;;;3.72;2.65;;;20.50;94.50;;;;;;4994665;28;20537;-82
2023/05/24 07:21:13;;;;;;;3.90;2.85;;;20.70;94.70;;;;;;4994392;28;20186;-82
2023/05/24 07:23:38;;;;;;;4.25;3.20;;;20.90;95.40;;;;;;4994765;28;20264;-82
2023/05/24 07:26:04;;;;;;;11.27;4.05;;;20.90;93.50;;;;;;5026223;28;20201;-82
2023/05/24 07:28:30;;;;;;;6.47;4.32;;;20.80;93.50;;;;;;5025547;28;20546;-82
2023/05/24 07:30:56;;;;;;;4.63;3.35;;;20.70;94.10;;;;;;5025832;28;20591;-82
2023/05/24 07:33:21;;;;;;;5.88;3.38;;;20.60;93.40;;;;;;4993793;28;20817;-82
2023/05/24 07:35:50;;;;;;;4.85;3.25;;;20.50;95.50;;;;;;5025677;28;20535;-82
2023/05/24 07:38:19;;;;;;;5.50;3.35;;;20.40;95.50;;;;;;5025565;28;20178;-82
2023/05/24 07:40:45;;;;;;;5.13;2.95;;;20.40;96.20;;;;;;4994203;28;20336;-83
2023/05/24 07:43:10;;;;;;;4.55;3.25;;;20.20;95.30;;;;;;4994044;28;20698;-82
2023/05/24 07:45:36;;;;;;;4.88;3.40;;;20.10;95.70;;;;;;5025459;28;20585;-81
2023/05/24 07:48:01;;;;;;;6.32;3.67;;;20.10;96.30;;;;;;5025571;28;20205;-82
2023/05/24 07:50:28;;;;;;;7.55;3.88;;;20.20;97.10;;;;;;4993996;28;20208;-82
2023/05/24 07:52:55;;;;;;;7.45;3.10;;;20.30;97.00;;;;;;4993875;28;20205;-82
2023/05/24 07:55:21;;;;;;;5.13;2.80;;;20.30;97.30;;;;;;5025028;28;20260;-82
2023/05/24 07:57:47;;;;;;;8.57;2.70;;;20.40;96.80;;;;;;4994133;28;20214;-82
2023/05/24 08:00:13;;;;;;;4.43;2.88;;;20.50;95.90;;;;;;5010555;28;20547;-81
2023/05/24 08:02:44;;;;;;;7.53;3.35;;;20.50;95.10;;;;;;5001524;28;20181;-81
2023/05/24 08:05:15;;;;;;;4.25;2.92;;;20.50;95.10;;;;;;5002058;28;20194;-81
2023/05/24 08:07:41;;;;;;;6.72;3.88;;;20.50;95.80;;;;;;4997240;28;20174;-81
2023/05/24 08:10:09;;;;;;;5.57;3.08;;;20.20;96.00;;;;;;5034616;28;20185;-82
2023/05/24 08:12:35;;;;;;;5.80;2.80;;;20.50;96.10;;;;;;4994160;28;20213;-82
2023/05/24 08:15:00;;;;;;;4.53;3.17;;;20.60;95.60;;;;;;4993920;28;20189;-82
2023/05/24 08:17:26;;;;;;;5.53;3.30;;;20.80;95.50;;;;;;5025139;28;20612;-82
2023/05/24 08:19:52;;;;;;;4.78;3.30;;;20.90;95.30;;;;;;4993470;28;20616;-82
2023/05/24 08:22:18;;;;;;;4.85;2.92;;;21.00;95.10;;;;;;5025174;28;20236;-82
2023/05/24 08:24:44;;;;;;;4.55;3.22;;;21.20;95.30;;;;;;4993767;28;20193;-83
2023/05/24 08:27:10;;;;;;;3.63;3.00;;;21.40;95.20;;;;;;4997355;28;20555;-83
2023/05/24 08:29:38;;;;;;;5.68;2.78;;;21.60;95.70;;;;;;4997538;28;20259;-82
2023/05/24 08:32:08;;;;;;;5.47;3.35;;;21.70;95.80;;;;;;4996187;28;20188;-82
2023/05/24 08:34:37;;;;;;;4.38;3.42;;;21.90;95.50;;;;;;5012008;28;20261;-82
2023/05/24 08:37:04;;;;;;;38.45;8.50;;;22.10;94.90;;;;;;5012238;28;20185;-82
2023/05/24 08:39:30;;;;;;;7.03;3.65;;;22.30;94.60;;;;;;4997147;28;20190;-83
2023/05/24 08:41:58;;;;;;;4.40;3.10;;;22.60;93.50;;;;;;4997305;28;20178;-83
2023/05/24 08:44:24;;;;;;;7.20;3.03;;;22.70;92.80;;;;;;4996925;28;20691;-83
2023/05/24 08:46:52;;;;;;;6.78;3.30;;;22.80;91.60;;;;;;4996054;28;20237;-83
2023/05/24 08:49:17;;;;;;;4.20;2.58;;;23.00;91.20;;;;;;5028695;28;20181;-82
2023/05/24 08:51:44;;;;;;;4.63;2.53;;;23.00;90.20;;;;;;4997003;28;20527;-82
2023/05/24 08:54:12;;;;;;;3.72;2.83;;;23.00;90.00;;;;;;4996863;28;20737;-84
2023/05/24 08:56:39;;;;;;;4.65;2.97;;;23.10;90.20;;;;;;4997535;28;20186;-83
2023/05/24 08:59:10;;;;;;;4.82;3.00;;;23.20;90.50;;;;;;4997604;28;20221;-83
2023/05/24 09:01:39;;;;;;;3.80;2.63;;;23.30;90.40;;;;;;5028467;28;20172;-83
2023/05/24 09:04:06;;;;;;;3.90;2.50;;;23.30;90.30;;;;;;4998402;28;20178;-83
2023/05/24 09:06:32;;;;;;;5.43;2.78;;;23.30;91.30;;;;;;5044433;28;20249;-82
2023/05/24 09:08:59;;;;;;;4.97;2.78;;;23.50;91.40;;;;;;5047070;28;20589;-84
2023/05/24 09:11:27;;;;;;;5.70;3.35;;;23.60;90.70;;;;;;5011190;28;20190;-83
2023/05/24 09:13:54;;;;;;;5.63;3.17;;;23.60;91.00;;;;;;5012202;28;20212;-83
2023/05/24 09:16:20;;;;;;;8.10;3.25;;;23.70;90.80;;;;;;5046859;28;20196;-83
2023/05/24 09:18:46;;;;;;;4.18;2.90;;;23.90;90.80;;;;;;5045774;28;20178;-83
2023/05/24 09:21:12;;;;;;;4.10;3.15;;;24.00;90.40;;;;;;5043396;28;20265;-83
2023/05/24 09:23:40;;;;;;;3.83;3.00;;;24.10;90.80;;;;;;4996309;28;20182;-85
2023/05/24 09:26:10;;;;;;;4.13;2.80;;;24.10;88.80;;;;;;4995331;28;20193;-83
2023/05/24 09:28:36;;;;;;;4.03;3.15;;;24.20;91.20;;;;;;4997702;28;20261;-83
2023/05/24 09:31:03;;;;;;;4.82;3.40;;;24.20;90.00;;;;;;4997163;28;20237;-83
2023/05/24 09:33:33;;;;;;;4.53;3.25;;;24.30;89.40;;;;;;5028104;28;20233;-84
2023/05/24 09:36:02;;;;;;;3.90;3.08;;;24.30;89.80;;;;;;5028473;28;20172;-83
2023/05/24 09:38:28;;;;;;;4.38;3.00;;;24.20;88.80;;;;;;5027151;28;20178;-84
2023/05/24 09:41:07;;;;;;;3.80;2.83;;;24.00;89.30;;;;;;5011643;28;20193;-83
2023/05/24 09:43:45;;;;;;;4.38;3.58;;;24.20;90.80;;;;;;4996221;28;20322;-83
2023/05/24 09:46:16;;;;;;;4.53;3.97;;;23.70;90.60;;;;;;4996961;28;20229;-84
2023/05/24 09:48:55;;;;;;;6.10;4.03;;;23.60;93.60;;;;;;4996206;28;20162;-83
2023/05/24 09:51:21;;;;;;;5.10;3.60;;;23.70;91.80;;;;;;4996671;28;20162;-84
2023/05/24 09:53:51;;;;;;;6.95;4.43;;;23.00;92.70;;;;;;5011119;28;20213;-82
2023/05/24 09:56:17;;;;;;;4.07;3.22;;;22.60;95.60;;;;;;5010646;28;20185;-82
2023/05/24 09:58:44;;;;;;;4.95;3.50;;;22.90;94.50;;;;;;4995884;28;20228;-83
2023/05/24 10:01:11;;;;;;;4.03;3.08;;;23.00;94.20;;;;;;5011492;28;20193;-83
2023/05/24 10:03:37;;;;;;;5.05;2.50;;;22.90;92.90;;;;;;5027565;28;20269;-82
2023/05/24 10:06:06;;;;;;;3.60;2.88;;;22.90;91.60;;;;;;4995285;28;20328;-83
2023/05/24 10:08:35;;;;;;;4.85;2.90;;;22.60;93.00;;;;;;4994765;28;20185;-83
2023/05/24 10:11:04;;;;;;;7.35;2.83;;;22.40;93.60;;;;;;5027779;28;20186;-84
2023/05/24 10:13:35;;;;;;;3.20;2.30;;;22.40;93.30;;;;;;4994623;28;20206;-83
2023/05/24 10:16:02;;;;;;;4.28;2.80;;;22.50;94.40;;;;;;5027838;28;20189;-83
2023/05/24 10:18:28;;;;;;;3.00;2.33;;;22.70;93.70;;;;;;5027415;28;20197;-82
2023/05/24 10:20:58;;;;;;;4.25;3.10;;;22.70;95.10;;;;;;4995847;28;20620;-82
2023/05/24 10:23:29;;;;;;;3.47;2.42;;;22.80;95.00;;;;;;4994181;28;20639;-84
2023/05/24 10:26:08;;;;;;;3.28;2.33;;;23.10;90.80;;;;;;4995516;28;20253;-83
2023/05/24 10:29:03;;;;;;;2.63;2.10;;;23.30;88.60;;;;;;4995204;28;20220;-82
2023/05/24 10:31:35;;;;;;;3.95;1.98;;;23.70;87.20;;;;;;4994328;28;20182;-81
2023/05/24 10:34:03;;;;;;;3.03;2.08;;;23.50;82.60;;;;;;4995575;28;20197;-81
2023/05/24 10:36:31;;;;;;;2.97;2.25;;;23.00;84.90;;;;;;5026998;28;20244;-84
2023/05/24 10:38:57;;;;;;;2.92;2.10;;;22.90;86.30;;;;;;5027940;28;20196;-83
2023/05/24 10:41:26;;;;;;;2.92;2.08;;;22.80;86.80;;;;;;5026837;28;20540;-83
2023/05/24 10:43:52;;;;;;;2.38;2.17;;;22.80;86.70;;;;;;5007363;28;20196;-83
2023/05/24 10:46:21;;;;;;;5.43;3.33;;;23.00;87.20;;;;;;5008971;28;20352;-83
2023/05/24 10:48:59;;;;;;;2.58;1.88;;;23.50;83.90;;;;;;5003805;28;20178;-82
2023/05/24 10:51:32;;;;;;;2.75;2.00;;;23.20;83.20;;;;;;5031452;28;20174;-83
2023/05/24 10:54:16;;;;;;;2.42;1.90;;;23.00;80.80;;;;;;4993824;28;20205;-83
2023/05/24 10:56:48;;;;;;;5.75;2.08;;;23.10;82.50;;;;;;4993301;28;20575;-83
2023/05/24 10:59:44;;;;;;;3.00;1.92;;;23.10;81.80;;;;;;4994631;28;20193;-83
2023/05/24 11:02:14;;;;;;;5.00;3.20;;;23.20;83.30;;;;;;4965402;28;20531;-83
2023/05/24 11:04:42;;;;;;;2.65;2.15;;;23.40;83.80;;;;;;4994632;28;20166;-83
2023/05/24 11:07:10;;;;;;;2.78;1.70;;;23.60;83.80;;;;;;4994748;28;20185;-82
2023/05/24 11:09:44;;;;;;;2.50;1.92;;;23.40;81.30;;;;;;4994479;28;20177;-83
2023/05/24 11:12:19;;;;;;;7.60;2.35;;;23.30;81.80;;;;;;5023990;28;20180;-82
2023/05/24 11:14:50;;;;;;;3.70;2.05;;;23.70;82.90;;;;;;4993831;28;20174;-83
2023/05/24 11:17:20;;;;;;;3.75;2.20;;;23.80;79.80;;;;;;4992794;28;20642;-81
2023/05/24 11:19:54;;;;;;;4.20;2.10;;;23.50;80.90;;;;;;4993811;28;20166;-83
2023/05/24 11:22:21;;;;;;;3.10;2.20;;;23.60;81.00;;;;;;4993912;28;20212;-82
2023/05/24 11:24:47;;;;;;;2.50;2.00;;;23.50;78.90;;;;;;4993915;28;20212;-84
2023/05/24 11:27:13;;;;;;;4.10;1.75;;;23.80;80.20;;;;;;5025088;28;20186;-84
2023/05/24 11:29:44;;;;;;;3.70;2.20;;;24.30;79.20;;;;;;4993661;28;20170;-83
2023/05/24 11:32:15;;;;;;;3.17;1.83;;;24.50;78.60;;;;;;4993769;28;20240;-83
2023/05/24 11:34:43;;;;;;;3.47;2.13;;;24.40;75.50;;;;;;4995821;28;20201;-82
2023/05/24 11:37:10;;;;;;;4.30;2.25;;;23.80;77.30;;;;;;5003853;28;20185;-81
2023/05/24 11:39:36;;;;;;;4.70;1.70;;;23.90;79.20;;;;;;5002296;28;20181;-82
2023/05/24 11:42:06;;;;;;;3.28;1.95;;;24.00;78.50;;;;;;5005115;28;20206;-82
2023/05/24 11:44:33;;;;;;;2.33;1.60;;;24.10;74.40;;;;;;4998117;28;20174;-83
2023/05/24 11:47:03;;;;;;;2.28;1.58;;;23.90;73.40;;;;;;4993916;28;20240;-82
2023/05/24 11:49:29;;;;;;;3.05;1.75;;;23.80;75.20;;;;;;5001902;28;20189;-82
2023/05/24 11:51:57;;;;;;;2.75;1.80;;;23.80;72.90;;;;;;5009717;28;20186;-83
2023/05/24 11:54:24;;;;;;;3.22;2.20;;;23.60;77.20;;;;;;5005544;28;20224;-83
2023/05/24 11:56:52;;;;;;;2.17;1.83;;;24.10;79.20;;;;;;4998839;28;20228;-83
2023/05/24 11:59:26;;;;;;;3.28;2.03;;;24.40;79.10;;;;;;4994791;28;20174;-82
2023/05/24 12:02:03;;;;;;;5.50;1.75;;;24.70;75.40;;;;;;4997192;28;20174;-82
2023/05/24 12:04:29;;;;;;;5.38;1.88;;;24.70;77.50;;;;;;4997925;28;20642;-83
2023/05/24 12:06:55;;;;;;;4.47;1.70;;;24.60;73.30;;;;;;4997978;28;20182;-84
2023/05/24 12:09:21;;;;;;;5.28;2.33;;;24.20;73.00;;;;;;4996138;28;20170;-83
2023/05/24 12:11:49;;;;;;;3.03;2.00;;;24.40;75.10;;;;;;4996792;28;20201;-84
2023/05/24 12:14:24;;;;;;;7.03;2.38;;;24.70;77.30;;;;;;5011877;28;20233;-81
2023/05/24 12:16:54;;;;;;;4.03;2.60;;;25.10;73.70;;;;;;4997202;28;20166;-84
2023/05/24 12:19:21;;;;;;;3.75;2.63;;;25.40;69.20;;;;;;4996808;28;20178;-83
2023/05/24 12:21:48;;;;;;;4.38;2.65;;;25.40;67.10;;;;;;4996420;28;20173;-83
2023/05/24 12:24:18;;;;;;;2.95;2.35;;;25.40;66.60;;;;;;4996488;28;20212;-84
2023/05/24 12:26:47;;;;;;;5.25;2.30;;;25.10;64.90;;;;;;4996489;28;20185;-83
2023/05/24 12:29:13;;;;;;;4.93;2.60;;;24.70;67.50;;;;;;4996638;28;20196;-82
2023/05/24 12:31:43;;;;;;;3.45;2.53;;;24.90;70.40;;;;;;4995205;28;20183;-84
2023/05/24 12:34:16;;;;;;;2.45;2.25;;;25.20;69.90;;;;;;5011077;28;20221;-83
2023/05/24 12:36:42;;;;;;;2.35;2.10;;;25.30;66.60;;;;;;4996550;28;20162;-82
2023/05/24 12:39:19;;;;;;;5.88;2.88;;;25.30;68.60;;;;;;5028105;28;20185;-82
2023/05/24 12:41:52;;;;;;;4.32;2.78;;;25.60;70.10;;;;;;4996462;28;20189;-81
2023/05/24 12:44:32;;;;;;;5.30;3.00;;;25.60;67.90;;;;;;5027633;28;20194;-83
2023/05/24 12:46:58;;;;;;;7.00;2.13;;;25.80;68.40;;;;;;4994358;28;20284;-82
2023/05/24 12:49:25;;;;;;;3.72;2.60;;;25.80;63.30;;;;;;5027654;28;20210;-82